sensor_id;sensor_type;location;lat;lon;timestamp;temperature;humidity
15288;DHT22;7745;48.708;9.026;2023-07-13T00:01:17;19.90;99.90
15288;DHT22;7745;48.708;9.026;2023-07-13T00:03:43;19.90;99.90
15288;DHT22;7745;48.708;9.026;2023-07-13T00:06:11;19.90;99.90
15288;DHT22;7745;48.708;9.026;2023-07-13T00:08:38;19.90;99.90
15288;DHT22;7745;48.708;9.026;2023-07-13T00:11:04;19.90;99.90
15288;DHT22;7745;48.708;9.026;2023-07-13T00:13:33;19.80;99.90
15288;DHT22;7745;48.708;9.026;2023-07-13T00:16:00;19.80;99.90
15288;DHT22;7745;48.708;9.026;2023-07-13T00:18:27;19.70;99.90
15288;DHT22;7745;48.708;9.026;2023-07-13T00:20:55;19.60;99.90
15288;DHT22;7745;48.708;9.026;2023-07-13T00:23:32;19.40;99.90
15288;DHT22;7745;48.708;9.026;2023-07-13T00:25:59;19.40;99.90
15288;DHT22;7745;48.708;9.026;2023-07-13T00:28:26;19.30;99.90
15288;DHT22;7745;48.708;9.026;2023-07-13T00:30:54;19.20;99.90
15288;DHT22;7745;48.708;9.026;2023-07-13T00:33:21;19.20;99.90
15288;DHT22;7745;48.708;9.026;2023-07-13T00:35:48;19.10;99.90
15288;DHT22;7745;48.708;9.026;2023-07-13T00:38:15;18.90;99.90
15288;DHT22;7745;48.708;9.026;2023-07-13T00:40:42;19.10;99.90
15288;DHT22;7745;48.708;9.026;2023-07-13T00:43:12;19.10;99.90
15288;DHT22;7745;48.708;9.026;2023-07-13T00:46:10;19.20;99.90
15288;DHT22;7745;48.708;9.026;2023-07-13T00:48:38;19.10;99.90
15288;DHT22;7745;48.708;9.026;2023-07-13T00:51:05;19.10;99.90
15288;DHT22;7745;48.708;9.026;2023-07-13T00:53:33;19.20;99.90
15288;DHT22;7745;48.708;9.026;2023-07-13T00:56:01;19.20;99.90
15288;DHT22;7745;48.708;9.026;2023-07-13T00:58:28;19.20;99.90
15288;DHT22;7745;48.708;9.026;2023-07-13T01:00:55;19.20;99.90
15288;DHT22;7745;48.708;9.026;2023-07-13T01:03:23;19.30;99.90
15288;DHT22;7745;48.708;9.026;2023-07-13T01:05:50;19.30;99.90
15288;DHT22;7745;48.708;9.026;2023-07-13T01:08:19;19.30;99.90
15288;DHT22;7745;48.708;9.026;2023-07-13T01:10:52;19.20;99.90
15288;DHT22;7745;48.708;9.026;2023-07-13T01:13:18;19.20;99.90
15288;DHT22;7745;48.708;9.026;2023-07-13T01:15:47;19.30;99.90
15288;DHT22;7745;48.708;9.026;2023-07-13T01:18:16;19.30;99.90
15288;DHT22;7745;48.708;9.026;2023-07-13T01:20:51;19.20;99.90
15288;DHT22;7745;48.708;9.026;2023-07-13T01:23:18;19.20;99.90
15288;DHT22;7745;48.708;9.026;2023-07-13T01:25:46;19.10;99.90
15288;DHT22;7745;48.708;9.026;2023-07-13T01:28:12;19.10;99.90
15288;DHT22;7745;48.708;9.026;2023-07-13T01:30:40;19.10;99.90
15288;DHT22;7745;48.708;9.026;2023-07-13T01:33:07;19.10;99.90
15288;DHT22;7745;48.708;9.026;2023-07-13T01:35:35;19.10;99.90
15288;DHT22;7745;48.708;9.026;2023-07-13T01:38:04;19.00;99.90
15288;DHT22;7745;48.708;9.026;2023-07-13T01:40:31;19.00;99.90
15288;DHT22;7745;48.708;9.026;2023-07-13T01:42:58;19.00;99.90
15288;DHT22;7745;48.708;9.026;2023-07-13T01:45:25;18.90;99.90
15288;DHT22;7745;48.708;9.026;2023-07-13T01:47:52;18.90;99.90
15288;DHT22;7745;48.708;9.026;2023-07-13T01:50:18;18.80;99.90
15288;DHT22;7745;48.708;9.026;2023-07-13T01:52:45;18.80;99.90
15288;DHT22;7745;48.708;9.026;2023-07-13T01:55:14;18.80;99.90
15288;DHT22;7745;48.708;9.026;2023-07-13T01:57:41;18.70;99.90
15288;DHT22;7745;48.708;9.026;2023-07-13T02:00:10;18.80;99.90
15288;DHT22;7745;48.708;9.026;2023-07-13T02:02:37;18.70;99.90
15288;DHT22;7745;48.708;9.026;2023-07-13T02:05:05;18.70;99.90
15288;DHT22;7745;48.708;9.026;2023-07-13T02:07:32;18.70;99.90
15288;DHT22;7745;48.708;9.026;2023-07-13T02:09:58;18.70;99.90
15288;DHT22;7745;48.708;9.026;2023-07-13T02:12:26;18.60;99.90
15288;DHT22;7745;48.708;9.026;2023-07-13T02:14:52;18.60;99.90
15288;DHT22;7745;48.708;9.026;2023-07-13T02:17:19;18.60;99.90
15288;DHT22;7745;48.708;9.026;2023-07-13T02:19:46;18.50;99.90
15288;DHT22;7745;48.708;9.026;2023-07-13T02:22:13;18.50;99.90
15288;DHT22;7745;48.708;9.026;2023-07-13T02:24:39;18.40;99.90
15288;DHT22;7745;48.708;9.026;2023-07-13T02:27:06;18.30;99.90
15288;DHT22;7745;48.708;9.026;2023-07-13T02:29:34;18.30;99.90
15288;DHT22;7745;48.708;9.026;2023-07-13T02:32:01;18.30;99.90
15288;DHT22;7745;48.708;9.026;2023-07-13T02:34:28;18.30;99.90
15288;DHT22;7745;48.708;9.026;2023-07-13T02:36:55;18.20;99.90
15288;DHT22;7745;48.708;9.026;2023-07-13T02:39:21;18.20;99.90
15288;DHT22;7745;48.708;9.026;2023-07-13T02:41:48;18.20;99.90
15288;DHT22;7745;48.708;9.026;2023-07-13T02:44:15;18.20;99.90
15288;DHT22;7745;48.708;9.026;2023-07-13T02:46:43;18.10;99.90
15288;DHT22;7745;48.708;9.026;2023-07-13T02:49:10;18.00;99.90
15288;DHT22;7745;48.708;9.026;2023-07-13T02:51:37;18.00;99.90
15288;DHT22;7745;48.708;9.026;2023-07-13T02:54:04;17.80;99.90
15288;DHT22;7745;48.708;9.026;2023-07-13T02:56:32;17.70;99.90
15288;DHT22;7745;48.708;9.026;2023-07-13T02:58:59;17.60;99.90
15288;DHT22;7745;48.708;9.026;2023-07-13T03:01:26;17.50;99.90
15288;DHT22;7745;48.708;9.026;2023-07-13T03:03:54;17.40;99.90
15288;DHT22;7745;48.708;9.026;2023-07-13T03:06:21;17.40;99.90
15288;DHT22;7745;48.708;9.026;2023-07-13T03:08:48;17.40;99.90
15288;DHT22;7745;48.708;9.026;2023-07-13T03:11:19;17.40;99.90
15288;DHT22;7745;48.708;9.026;2023-07-13T03:13:46;17.30;99.90
15288;DHT22;7745;48.708;9.026;2023-07-13T03:16:13;17.30;99.90
15288;DHT22;7745;48.708;9.026;2023-07-13T03:18:41;17.40;99.90
15288;DHT22;7745;48.708;9.026;2023-07-13T03:21:10;17.50;99.90
15288;DHT22;7745;48.708;9.026;2023-07-13T03:23:36;17.30;99.90
15288;DHT22;7745;48.708;9.026;2023-07-13T03:26:05;17.20;99.90
15288;DHT22;7745;48.708;9.026;2023-07-13T03:28:33;17.20;99.90
15288;DHT22;7745;48.708;9.026;2023-07-13T03:31:01;17.20;99.90
15288;DHT22;7745;48.708;9.026;2023-07-13T03:33:28;17.30;99.90
15288;DHT22;7745;48.708;9.026;2023-07-13T03:35:55;17.40;99.90
15288;DHT22;7745;48.708;9.026;2023-07-13T03:38:24;17.50;99.90
15288;DHT22;7745;48.708;9.026;2023-07-13T03:40:51;17.50;99.90
15288;DHT22;7745;48.708;9.026;2023-07-13T03:43:18;17.50;99.90
15288;DHT22;7745;48.708;9.026;2023-07-13T03:45:46;17.50;99.90
15288;DHT22;7745;48.708;9.026;2023-07-13T03:48:12;17.50;99.90
15288;DHT22;7745;48.708;9.026;2023-07-13T03:50:39;17.50;99.90
15288;DHT22;7745;48.708;9.026;2023-07-13T03:53:06;17.60;99.90
15288;DHT22;7745;48.708;9.026;2023-07-13T03:55:34;17.60;99.90
15288;DHT22;7745;48.708;9.026;2023-07-13T03:58:31;17.60;99.90
15288;DHT22;7745;48.708;9.026;2023-07-13T04:00:59;17.60;99.90
15288;DHT22;7745;48.708;9.026;2023-07-13T04:03:26;17.60;99.90
15288;DHT22;7745;48.708;9.026;2023-07-13T04:05:54;17.60;99.90
15288;DHT22;7745;48.708;9.026;2023-07-13T04:08:25;17.50;99.90
15288;DHT22;7745;48.708;9.026;2023-07-13T04:10:53;17.50;99.90
15288;DHT22;7745;48.708;9.026;2023-07-13T04:13:20;17.40;99.90
15288;DHT22;7745;48.708;9.026;2023-07-13T04:15:47;17.50;99.90
15288;DHT22;7745;48.708;9.026;2023-07-13T04:18:13;17.50;99.90
15288;DHT22;7745;48.708;9.026;2023-07-13T04:20:40;17.50;99.90
15288;DHT22;7745;48.708;9.026;2023-07-13T04:23:07;17.40;99.90
15288;DHT22;7745;48.708;9.026;2023-07-13T04:25:34;17.30;99.90
15288;DHT22;7745;48.708;9.026;2023-07-13T04:28:03;17.30;99.90
15288;DHT22;7745;48.708;9.026;2023-07-13T04:30:30;17.30;99.90
15288;DHT22;7745;48.708;9.026;2023-07-13T04:32:57;17.20;99.90
15288;DHT22;7745;48.708;9.026;2023-07-13T04:35:24;17.20;99.90
15288;DHT22;7745;48.708;9.026;2023-07-13T04:37:50;17.20;99.90
15288;DHT22;7745;48.708;9.026;2023-07-13T04:40:18;17.20;99.90
15288;DHT22;7745;48.708;9.026;2023-07-13T04:42:45;17.20;99.90
15288;DHT22;7745;48.708;9.026;2023-07-13T04:45:13;17.30;99.90
15288;DHT22;7745;48.708;9.026;2023-07-13T04:47:41;17.20;99.90
15288;DHT22;7745;48.708;9.026;2023-07-13T04:50:09;17.20;99.90
15288;DHT22;7745;48.708;9.026;2023-07-13T04:52:36;17.20;99.90
15288;DHT22;7745;48.708;9.026;2023-07-13T04:55:04;17.20;99.90
15288;DHT22;7745;48.708;9.026;2023-07-13T04:57:31;17.20;99.90
15288;DHT22;7745;48.708;9.026;2023-07-13T04:59:58;17.20;99.90
15288;DHT22;7745;48.708;9.026;2023-07-13T05:02:27;17.20;99.90
15288;DHT22;7745;48.708;9.026;2023-07-13T05:04:56;17.20;99.90
15288;DHT22;7745;48.708;9.026;2023-07-13T05:07:23;17.20;99.90
15288;DHT22;7745;48.708;9.026;2023-07-13T05:09:50;17.30;99.90
15288;DHT22;7745;48.708;9.026;2023-07-13T05:12:16;17.40;99.90
15288;DHT22;7745;48.708;9.026;2023-07-13T05:14:43;17.50;99.90
15288;DHT22;7745;48.708;9.026;2023-07-13T05:17:10;17.60;99.90
15288;DHT22;7745;48.708;9.026;2023-07-13T05:19:38;17.70;99.90
15288;DHT22;7745;48.708;9.026;2023-07-13T05:22:05;17.80;99.90
15288;DHT22;7745;48.708;9.026;2023-07-13T05:24:32;17.90;99.90
15288;DHT22;7745;48.708;9.026;2023-07-13T05:26:59;18.00;99.90
15288;DHT22;7745;48.708;9.026;2023-07-13T05:29:25;18.10;99.90
15288;DHT22;7745;48.708;9.026;2023-07-13T05:31:52;18.30;99.90
15288;DHT22;7745;48.708;9.026;2023-07-13T05:34:19;18.40;99.90
15288;DHT22;7745;48.708;9.026;2023-07-13T05:36:47;18.40;99.90
15288;DHT22;7745;48.708;9.026;2023-07-13T05:39:14;18.30;99.90
15288;DHT22;7745;48.708;9.026;2023-07-13T05:41:41;18.20;99.90
15288;DHT22;7745;48.708;9.026;2023-07-13T05:44:08;18.20;99.90
15288;DHT22;7745;48.708;9.026;2023-07-13T05:46:35;18.40;99.90
15288;DHT22;7745;48.708;9.026;2023-07-13T05:49:02;18.40;99.90
15288;DHT22;7745;48.708;9.026;2023-07-13T05:51:29;18.40;99.90
15288;DHT22;7745;48.708;9.026;2023-07-13T05:53:57;18.50;99.90
15288;DHT22;7745;48.708;9.026;2023-07-13T05:56:24;18.60;99.90
15288;DHT22;7745;48.708;9.026;2023-07-13T05:58:52;18.70;99.90
15288;DHT22;7745;48.708;9.026;2023-07-13T06:01:19;18.70;99.90
15288;DHT22;7745;48.708;9.026;2023-07-13T06:03:46;18.70;99.90
15288;DHT22;7745;48.708;9.026;2023-07-13T06:06:13;19.10;99.90
15288;DHT22;7745;48.708;9.026;2023-07-13T06:08:40;19.30;99.90
15288;DHT22;7745;48.708;9.026;2023-07-13T06:11:13;19.40;99.90
15288;DHT22;7745;48.708;9.026;2023-07-13T06:13:40;19.50;99.90
15288;DHT22;7745;48.708;9.026;2023-07-13T06:16:07;19.60;99.90
15288;DHT22;7745;48.708;9.026;2023-07-13T06:18:35;19.80;99.90
15288;DHT22;7745;48.708;9.026;2023-07-13T06:21:06;19.90;99.90
15288;DHT22;7745;48.708;9.026;2023-07-13T06:23:33;20.00;99.90
15288;DHT22;7745;48.708;9.026;2023-07-13T06:26:00;20.00;99.90
15288;DHT22;7745;48.708;9.026;2023-07-13T06:28:28;20.20;99.90
15288;DHT22;7745;48.708;9.026;2023-07-13T06:30:55;20.30;99.90
15288;DHT22;7745;48.708;9.026;2023-07-13T06:33:22;20.50;99.90
15288;DHT22;7745;48.708;9.026;2023-07-13T06:35:49;20.70;99.90
15288;DHT22;7745;48.708;9.026;2023-07-13T06:38:16;20.80;99.90
15288;DHT22;7745;48.708;9.026;2023-07-13T06:40:42;20.70;99.90
15288;DHT22;7745;48.708;9.026;2023-07-13T06:43:09;20.80;99.90
15288;DHT22;7745;48.708;9.026;2023-07-13T06:45:45;20.70;99.90
15288;DHT22;7745;48.708;9.026;2023-07-13T06:48:13;20.80;99.90
15288;DHT22;7745;48.708;9.026;2023-07-13T06:50:40;21.20;99.90
15288;DHT22;7745;48.708;9.026;2023-07-13T06:53:07;21.20;99.90
15288;DHT22;7745;48.708;9.026;2023-07-13T06:55:34;21.40;99.90
15288;DHT22;7745;48.708;9.026;2023-07-13T06:58:01;21.30;99.90
15288;DHT22;7745;48.708;9.026;2023-07-13T07:00:28;21.30;99.90
15288;DHT22;7745;48.708;9.026;2023-07-13T07:02:56;21.40;99.90
15288;DHT22;7745;48.708;9.026;2023-07-13T07:05:23;21.50;99.90
15288;DHT22;7745;48.708;9.026;2023-07-13T07:07:50;21.50;99.90
15288;DHT22;7745;48.708;9.026;2023-07-13T07:10:18;21.50;99.90
15288;DHT22;7745;48.708;9.026;2023-07-13T07:12:45;21.50;99.90
15288;DHT22;7745;48.708;9.026;2023-07-13T07:15:12;21.50;99.90
15288;DHT22;7745;48.708;9.026;2023-07-13T07:17:39;21.70;99.90
15288;DHT22;7745;48.708;9.026;2023-07-13T07:20:09;21.60;99.90
15288;DHT22;7745;48.708;9.026;2023-07-13T07:22:36;21.70;99.90
15288;DHT22;7745;48.708;9.026;2023-07-13T07:25:03;21.80;99.90
15288;DHT22;7745;48.708;9.026;2023-07-13T07:27:30;21.90;99.90
15288;DHT22;7745;48.708;9.026;2023-07-13T07:29:57;21.90;99.90
15288;DHT22;7745;48.708;9.026;2023-07-13T07:32:24;21.80;99.90
15288;DHT22;7745;48.708;9.026;2023-07-13T07:34:51;21.70;99.90
15288;DHT22;7745;48.708;9.026;2023-07-13T07:37:19;21.80;99.90
15288;DHT22;7745;48.708;9.026;2023-07-13T07:39:46;21.70;99.90
15288;DHT22;7745;48.708;9.026;2023-07-13T07:42:13;21.90;99.90
15288;DHT22;7745;48.708;9.026;2023-07-13T07:44:40;22.00;99.90
15288;DHT22;7745;48.708;9.026;2023-07-13T07:47:07;22.10;99.90
15288;DHT22;7745;48.708;9.026;2023-07-13T07:49:34;22.20;99.90
15288;DHT22;7745;48.708;9.026;2023-07-13T07:52:01;22.10;99.90
15288;DHT22;7745;48.708;9.026;2023-07-13T07:54:29;22.20;99.90
15288;DHT22;7745;48.708;9.026;2023-07-13T07:56:56;22.50;99.90
15288;DHT22;7745;48.708;9.026;2023-07-13T07:59:22;22.60;99.90
15288;DHT22;7745;48.708;9.026;2023-07-13T08:01:49;22.50;99.90
15288;DHT22;7745;48.708;9.026;2023-07-13T08:04:17;22.40;99.90
15288;DHT22;7745;48.708;9.026;2023-07-13T08:06:43;22.40;99.90
15288;DHT22;7745;48.708;9.026;2023-07-13T08:09:10;22.40;99.90
15288;DHT22;7745;48.708;9.026;2023-07-13T08:11:38;22.60;99.90
15288;DHT22;7745;48.708;9.026;2023-07-13T08:14:05;22.60;99.90
15288;DHT22;7745;48.708;9.026;2023-07-13T08:16:32;22.60;99.90
15288;DHT22;7745;48.708;9.026;2023-07-13T08:19:00;22.70;99.90
15288;DHT22;7745;48.708;9.026;2023-07-13T08:21:27;22.60;99.90
15288;DHT22;7745;48.708;9.026;2023-07-13T08:23:54;22.60;99.90
15288;DHT22;7745;48.708;9.026;2023-07-13T08:26:20;22.60;99.90
15288;DHT22;7745;48.708;9.026;2023-07-13T08:28:48;22.30;99.90
15288;DHT22;7745;48.708;9.026;2023-07-13T08:31:15;22.30;99.90
15288;DHT22;7745;48.708;9.026;2023-07-13T08:33:42;22.60;99.90
15288;DHT22;7745;48.708;9.026;2023-07-13T08:36:10;22.60;99.90
15288;DHT22;7745;48.708;9.026;2023-07-13T08:38:37;22.60;99.90
15288;DHT22;7745;48.708;9.026;2023-07-13T08:41:11;22.70;99.90
15288;DHT22;7745;48.708;9.026;2023-07-13T08:43:39;22.90;99.90
15288;DHT22;7745;48.708;9.026;2023-07-13T08:46:10;22.80;99.90
15288;DHT22;7745;48.708;9.026;2023-07-13T08:48:43;22.80;99.90
15288;DHT22;7745;48.708;9.026;2023-07-13T08:51:21;22.90;99.90
15288;DHT22;7745;48.708;9.026;2023-07-13T08:53:52;22.70;99.90
15288;DHT22;7745;48.708;9.026;2023-07-13T08:56:24;22.50;99.90
15288;DHT22;7745;48.708;9.026;2023-07-13T08:58:55;22.60;99.90
15288;DHT22;7745;48.708;9.026;2023-07-13T09:01:28;22.50;99.90
15288;DHT22;7745;48.708;9.026;2023-07-13T09:04:03;22.40;99.90
15288;DHT22;7745;48.708;9.026;2023-07-13T09:06:34;22.30;99.90
15288;DHT22;7745;48.708;9.026;2023-07-13T09:09:10;22.50;99.90
15288;DHT22;7745;48.708;9.026;2023-07-13T09:11:46;22.60;99.90
15288;DHT22;7745;48.708;9.026;2023-07-13T09:14:40;23.00;99.90
15288;DHT22;7745;48.708;9.026;2023-07-13T09:17:14;23.20;99.90
15288;DHT22;7745;48.708;9.026;2023-07-13T09:19:42;23.30;99.90
15288;DHT22;7745;48.708;9.026;2023-07-13T09:22:14;23.80;99.90
15288;DHT22;7745;48.708;9.026;2023-07-13T09:24:52;24.00;99.90
15288;DHT22;7745;48.708;9.026;2023-07-13T09:27:22;24.10;99.90
15288;DHT22;7745;48.708;9.026;2023-07-13T09:32:39;23.90;99.90
15288;DHT22;7745;48.708;9.026;2023-07-13T09:35:13;23.60;99.90
15288;DHT22;7745;48.708;9.026;2023-07-13T09:37:43;23.50;99.90
15288;DHT22;7745;48.708;9.026;2023-07-13T09:40:17;23.50;99.90
15288;DHT22;7745;48.708;9.026;2023-07-13T09:42:49;23.60;99.90
15288;DHT22;7745;48.708;9.026;2023-07-13T09:45:26;23.60;99.90
15288;DHT22;7745;48.708;9.026;2023-07-13T09:48:04;23.70;99.90
15288;DHT22;7745;48.708;9.026;2023-07-13T09:50:31;24.10;99.90
15288;DHT22;7745;48.708;9.026;2023-07-13T09:52:57;24.20;99.90
15288;DHT22;7745;48.708;9.026;2023-07-13T09:55:29;24.10;99.90
15288;DHT22;7745;48.708;9.026;2023-07-13T09:57:56;24.00;99.90
15288;DHT22;7745;48.708;9.026;2023-07-13T10:00:26;24.00;99.90
15288;DHT22;7745;48.708;9.026;2023-07-13T10:03:03;23.90;99.90
15288;DHT22;7745;48.708;9.026;2023-07-13T10:05:38;24.10;99.90
15288;DHT22;7745;48.708;9.026;2023-07-13T10:08:10;24.30;99.90
15288;DHT22;7745;48.708;9.026;2023-07-13T10:10:41;24.40;99.90
15288;DHT22;7745;48.708;9.026;2023-07-13T10:13:23;24.70;99.90
15288;DHT22;7745;48.708;9.026;2023-07-13T10:15:52;24.90;99.90
15288;DHT22;7745;48.708;9.026;2023-07-13T10:18:21;25.10;99.90
15288;DHT22;7745;48.708;9.026;2023-07-13T10:20:49;25.20;99.90
15288;DHT22;7745;48.708;9.026;2023-07-13T10:23:21;25.30;99.90
15288;DHT22;7745;48.708;9.026;2023-07-13T10:25:50;25.30;99.90
15288;DHT22;7745;48.708;9.026;2023-07-13T10:28:25;25.40;99.90
15288;DHT22;7745;48.708;9.026;2023-07-13T10:30:54;25.30;99.90
15288;DHT22;7745;48.708;9.026;2023-07-13T10:33:23;25.20;99.90
15288;DHT22;7745;48.708;9.026;2023-07-13T10:35:54;25.00;99.90
15288;DHT22;7745;48.708;9.026;2023-07-13T10:38:23;24.80;99.90
15288;DHT22;7745;48.708;9.026;2023-07-13T10:40:57;24.80;99.90
15288;DHT22;7745;48.708;9.026;2023-07-13T10:43:27;24.60;99.90
15288;DHT22;7745;48.708;9.026;2023-07-13T10:45:55;24.70;99.90
15288;DHT22;7745;48.708;9.026;2023-07-13T10:48:23;24.60;99.90
15288;DHT22;7745;48.708;9.026;2023-07-13T10:50:52;24.50;99.90
15288;DHT22;7745;48.708;9.026;2023-07-13T10:53:21;24.40;99.90
15288;DHT22;7745;48.708;9.026;2023-07-13T10:55:56;24.60;99.90
15288;DHT22;7745;48.708;9.026;2023-07-13T10:58:31;24.60;99.90
15288;DHT22;7745;48.708;9.026;2023-07-13T11:01:03;24.80;99.90
15288;DHT22;7745;48.708;9.026;2023-07-13T11:03:36;24.80;99.90
15288;DHT22;7745;48.708;9.026;2023-07-13T11:06:07;24.70;99.90
15288;DHT22;7745;48.708;9.026;2023-07-13T11:08:37;24.60;99.90
15288;DHT22;7745;48.708;9.026;2023-07-13T11:11:34;24.80;99.90
15288;DHT22;7745;48.708;9.026;2023-07-13T11:14:02;24.80;99.90
15288;DHT22;7745;48.708;9.026;2023-07-13T11:16:44;24.80;99.90
15288;DHT22;7745;48.708;9.026;2023-07-13T11:19:37;24.80;99.90
15288;DHT22;7745;48.708;9.026;2023-07-13T11:22:14;24.90;99.90
15288;DHT22;7745;48.708;9.026;2023-07-13T11:24:50;24.70;99.90
15288;DHT22;7745;48.708;9.026;2023-07-13T11:27:33;24.60;99.90
15288;DHT22;7745;48.708;9.026;2023-07-13T11:30:21;24.70;99.90
15288;DHT22;7745;48.708;9.026;2023-07-13T11:32:51;24.50;99.90
15288;DHT22;7745;48.708;9.026;2023-07-13T11:35:29;24.50;99.90
15288;DHT22;7745;48.708;9.026;2023-07-13T11:37:58;24.50;99.90
15288;DHT22;7745;48.708;9.026;2023-07-13T11:40:27;24.60;99.90
15288;DHT22;7745;48.708;9.026;2023-07-13T11:42:59;24.90;99.90
15288;DHT22;7745;48.708;9.026;2023-07-13T11:45:26;25.20;99.90
15288;DHT22;7745;48.708;9.026;2023-07-13T11:47:54;25.30;99.90
15288;DHT22;7745;48.708;9.026;2023-07-13T11:50:23;25.40;99.90
15288;DHT22;7745;48.708;9.026;2023-07-13T11:52:53;25.50;99.90
15288;DHT22;7745;48.708;9.026;2023-07-13T11:55:23;25.30;99.90
15288;DHT22;7745;48.708;9.026;2023-07-13T11:57:52;25.20;99.90
15288;DHT22;7745;48.708;9.026;2023-07-13T12:00:23;25.00;99.90
15288;DHT22;7745;48.708;9.026;2023-07-13T12:02:54;24.80;99.90
15288;DHT22;7745;48.708;9.026;2023-07-13T12:05:21;25.00;99.90
15288;DHT22;7745;48.708;9.026;2023-07-13T12:07:48;25.10;99.90
15288;DHT22;7745;48.708;9.026;2023-07-13T12:10:21;25.20;99.90
15288;DHT22;7745;48.708;9.026;2023-07-13T12:12:51;25.00;99.90
15288;DHT22;7745;48.708;9.026;2023-07-13T12:15:18;24.90;99.90
15288;DHT22;7745;48.708;9.026;2023-07-13T12:17:46;24.90;99.90
15288;DHT22;7745;48.708;9.026;2023-07-13T12:20:20;24.90;99.90
15288;DHT22;7745;48.708;9.026;2023-07-13T12:22:47;24.90;99.90
15288;DHT22;7745;48.708;9.026;2023-07-13T12:25:15;24.90;99.90
15288;DHT22;7745;48.708;9.026;2023-07-13T12:27:46;25.00;99.90
15288;DHT22;7745;48.708;9.026;2023-07-13T12:30:28;25.00;99.90
15288;DHT22;7745;48.708;9.026;2023-07-13T12:32:57;25.10;99.90
15288;DHT22;7745;48.708;9.026;2023-07-13T12:35:26;25.10;99.90
15288;DHT22;7745;48.708;9.026;2023-07-13T12:37:57;25.10;99.90
15288;DHT22;7745;48.708;9.026;2023-07-13T12:40:31;25.20;99.90
15288;DHT22;7745;48.708;9.026;2023-07-13T12:43:01;25.20;99.90
15288;DHT22;7745;48.708;9.026;2023-07-13T12:45:29;25.40;99.90
15288;DHT22;7745;48.708;9.026;2023-07-13T12:47:59;25.40;99.90
15288;DHT22;7745;48.708;9.026;2023-07-13T12:50:34;25.30;99.90
15288;DHT22;7745;48.708;9.026;2023-07-13T12:53:05;25.40;99.90
15288;DHT22;7745;48.708;9.026;2023-07-13T12:55:41;25.20;99.90
15288;DHT22;7745;48.708;9.026;2023-07-13T12:58:20;25.20;99.90
15288;DHT22;7745;48.708;9.026;2023-07-13T13:00:50;25.00;99.90
15288;DHT22;7745;48.708;9.026;2023-07-13T13:03:25;25.10;99.90
15288;DHT22;7745;48.708;9.026;2023-07-13T13:06:00;25.20;99.90
15288;DHT22;7745;48.708;9.026;2023-07-13T13:08:29;25.20;99.90
15288;DHT22;7745;48.708;9.026;2023-07-13T13:10:55;25.10;99.90
15288;DHT22;7745;48.708;9.026;2023-07-13T13:13:24;25.30;99.90
15288;DHT22;7745;48.708;9.026;2023-07-13T13:15:51;25.50;99.90
15288;DHT22;7745;48.708;9.026;2023-07-13T13:18:19;25.70;99.90
15288;DHT22;7745;48.708;9.026;2023-07-13T13:20:48;25.90;99.90
15288;DHT22;7745;48.708;9.026;2023-07-13T13:23:17;26.10;99.90
15288;DHT22;7745;48.708;9.026;2023-07-13T13:25:45;26.50;99.90
15288;DHT22;7745;48.708;9.026;2023-07-13T13:28:14;26.50;99.90
15288;DHT22;7745;48.708;9.026;2023-07-13T13:30:43;26.40;99.90
15288;DHT22;7745;48.708;9.026;2023-07-13T13:33:12;26.30;99.90
15288;DHT22;7745;48.708;9.026;2023-07-13T13:35:41;26.30;99.90
15288;DHT22;7745;48.708;9.026;2023-07-13T13:38:14;26.30;99.90
15288;DHT22;7745;48.708;9.026;2023-07-13T13:40:42;26.50;99.90
15288;DHT22;7745;48.708;9.026;2023-07-13T13:43:15;26.40;99.90
15288;DHT22;7745;48.708;9.026;2023-07-13T13:45:45;26.40;99.90
15288;DHT22;7745;48.708;9.026;2023-07-13T13:48:18;26.40;99.90
15288;DHT22;7745;48.708;9.026;2023-07-13T13:50:46;26.30;99.90
15288;DHT22;7745;48.708;9.026;2023-07-13T13:53:13;26.40;99.90
15288;DHT22;7745;48.708;9.026;2023-07-13T13:55:41;26.40;99.90
15288;DHT22;7745;48.708;9.026;2023-07-13T13:58:09;26.50;99.90
15288;DHT22;7745;48.708;9.026;2023-07-13T14:00:36;26.50;99.90
15288;DHT22;7745;48.708;9.026;2023-07-13T14:03:05;26.40;99.90
15288;DHT22;7745;48.708;9.026;2023-07-13T14:05:35;26.30;99.90
15288;DHT22;7745;48.708;9.026;2023-07-13T14:08:02;26.30;99.90
15288;DHT22;7745;48.708;9.026;2023-07-13T14:10:29;26.60;99.90
15288;DHT22;7745;48.708;9.026;2023-07-13T14:12:56;26.60;99.90
15288;DHT22;7745;48.708;9.026;2023-07-13T14:15:25;26.60;99.90
15288;DHT22;7745;48.708;9.026;2023-07-13T14:17:53;26.70;99.90
15288;DHT22;7745;48.708;9.026;2023-07-13T14:20:22;26.70;99.90
15288;DHT22;7745;48.708;9.026;2023-07-13T14:22:50;26.80;99.90
15288;DHT22;7745;48.708;9.026;2023-07-13T14:25:18;26.80;99.90
15288;DHT22;7745;48.708;9.026;2023-07-13T14:27:56;26.90;99.90
15288;DHT22;7745;48.708;9.026;2023-07-13T14:30:25;26.90;99.90
15288;DHT22;7745;48.708;9.026;2023-07-13T14:32:52;26.60;99.90
15288;DHT22;7745;48.708;9.026;2023-07-13T14:35:22;26.30;99.90
15288;DHT22;7745;48.708;9.026;2023-07-13T14:37:49;26.00;99.90
15288;DHT22;7745;48.708;9.026;2023-07-13T14:40:19;25.90;99.90
15288;DHT22;7745;48.708;9.026;2023-07-13T14:42:49;25.80;99.90
15288;DHT22;7745;48.708;9.026;2023-07-13T14:45:19;25.70;99.90
15288;DHT22;7745;48.708;9.026;2023-07-13T14:47:47;25.80;99.90
15288;DHT22;7745;48.708;9.026;2023-07-13T14:50:15;25.90;99.90
15288;DHT22;7745;48.708;9.026;2023-07-13T14:52:44;26.00;99.90
15288;DHT22;7745;48.708;9.026;2023-07-13T14:55:12;26.00;99.90
15288;DHT22;7745;48.708;9.026;2023-07-13T14:57:41;25.80;99.90
15288;DHT22;7745;48.708;9.026;2023-07-13T15:00:15;25.60;99.90
15288;DHT22;7745;48.708;9.026;2023-07-13T15:02:44;25.60;99.90
15288;DHT22;7745;48.708;9.026;2023-07-13T15:05:14;25.60;99.90
15288;DHT22;7745;48.708;9.026;2023-07-13T15:07:41;25.60;99.90
15288;DHT22;7745;48.708;9.026;2023-07-13T15:10:18;25.60;99.90
15288;DHT22;7745;48.708;9.026;2023-07-13T15:12:45;25.40;99.90
15288;DHT22;7745;48.708;9.026;2023-07-13T15:15:13;25.40;99.90
15288;DHT22;7745;48.708;9.026;2023-07-13T15:17:41;25.30;99.90
15288;DHT22;7745;48.708;9.026;2023-07-13T15:20:21;25.30;99.90
15288;DHT22;7745;48.708;9.026;2023-07-13T15:22:50;25.30;99.90
15288;DHT22;7745;48.708;9.026;2023-07-13T15:25:22;25.50;99.90
15288;DHT22;7745;48.708;9.026;2023-07-13T15:27:50;25.60;99.90
15288;DHT22;7745;48.708;9.026;2023-07-13T15:30:17;25.90;99.90
15288;DHT22;7745;48.708;9.026;2023-07-13T15:32:45;26.00;99.90
15288;DHT22;7745;48.708;9.026;2023-07-13T15:35:16;26.10;99.90
15288;DHT22;7745;48.708;9.026;2023-07-13T15:37:43;26.10;99.90
15288;DHT22;7745;48.708;9.026;2023-07-13T15:40:11;26.10;99.90
15288;DHT22;7745;48.708;9.026;2023-07-13T15:42:40;26.10;99.90
15288;DHT22;7745;48.708;9.026;2023-07-13T15:45:18;26.20;99.90
15288;DHT22;7745;48.708;9.026;2023-07-13T15:47:46;26.20;99.90
15288;DHT22;7745;48.708;9.026;2023-07-13T15:50:14;26.20;99.90
15288;DHT22;7745;48.708;9.026;2023-07-13T15:52:42;26.20;99.90
15288;DHT22;7745;48.708;9.026;2023-07-13T15:55:11;26.10;99.90
15288;DHT22;7745;48.708;9.026;2023-07-13T15:57:47;26.00;99.90
15288;DHT22;7745;48.708;9.026;2023-07-13T16:00:21;25.80;99.90